Time;durP1;ratioP1;P1;durP2;ratioP2;P2;SDS_P1;SDS_P2;PMS_P1;PMS_P2;Temp;Humidity;BMP_temperature;BMP_pressure;BME280_temperature;BME280_humidity;BME280_pressure;Samples;Min_cycle;Max_cycle;Signal;HPM_P1;HPM_P2
2022/05/25 00:00:57;;;;;;;89.20;52.95;;;19.40;62.40;;;;;;4910191;28;92465;-43
2022/05/25 00:03:23;;;;;;;88.72;52.90;;;19.30;62.50;;;;;;4901154;28;92793;-41
2022/05/25 00:05:48;;;;;;;89.03;52.75;;;19.30;62.60;;;;;;4903961;28;93090;-44
2022/05/25 00:08:14;;;;;;;89.32;52.75;;;19.30;62.30;;;;;;4924426;28;89993;-41
2022/05/25 00:10:40;;;;;;;88.97;52.88;;;19.30;62.60;;;;;;4925509;28;89573;-43
2022/05/25 00:13:06;;;;;;;88.57;52.95;;;19.30;62.40;;;;;;4926780;28;89697;-42
2022/05/25 00:15:33;;;;;;;88.53;52.55;;;19.30;62.40;;;;;;4930289;28;90929;-42
2022/05/25 00:17:58;;;;;;;89.10;52.95;;;19.20;62.50;;;;;;4921484;28;90566;-41
2022/05/25 00:20:24;;;;;;;88.72;53.00;;;19.20;62.40;;;;;;4926278;28;89846;-44
2022/05/25 00:22:53;;;;;;;88.10;52.45;;;19.20;62.40;;;;;;4926350;28;90515;-42
2022/05/25 00:25:23;;;;;;;88.53;52.55;;;19.20;62.60;;;;;;4916640;28;90666;-41
2022/05/25 00:27:50;;;;;;;88.18;52.67;;;19.20;62.60;;;;;;4920935;28;90990;-41
2022/05/25 00:30:18;;;;;;;87.75;52.40;;;19.20;62.70;;;;;;4920344;28;94167;-41
2022/05/25 00:32:44;;;;;;;88.88;52.63;;;19.20;62.60;;;;;;4927625;28;91856;-43
2022/05/25 00:35:20;;;;;;;88.82;52.50;;;19.20;62.80;;;;;;4915179;28;90624;-41
2022/05/25 00:37:46;;;;;;;88.40;52.45;;;19.20;62.40;;;;;;4927405;28;90375;-41
2022/05/25 00:40:15;;;;;;;89.47;52.55;;;19.20;62.90;;;;;;4918648;28;90495;-41
2022/05/25 00:42:41;;;;;;;88.15;52.45;;;19.10;62.70;;;;;;4914200;28;96223;-45
2022/05/25 00:45:07;;;;;;;89.25;52.47;;;19.10;62.70;;;;;;4920569;28;89904;-43
2022/05/25 00:47:35;;;;;;;88.65;52.30;;;19.10;62.50;;;;;;4928448;28;90464;-43
2022/05/25 00:50:00;;;;;;;87.90;52.65;;;19.10;63.30;;;;;;4914540;28;90942;-42
2022/05/25 00:52:27;;;;;;;88.03;52.55;;;19.10;63.00;;;;;;4917116;28;94382;-43
2022/05/25 00:55:02;;;;;;;88.65;52.58;;;19.10;62.90;;;;;;4915353;28;91158;-43
2022/05/25 00:57:33;;;;;;;87.45;52.30;;;19.10;62.80;;;;;;4924007;28;91229;-44
2022/05/25 01:00:05;;;;;;;87.70;52.28;;;19.10;62.70;;;;;;4924995;28;90126;-44
2022/05/25 01:02:33;;;;;;;88.57;52.50;;;19.10;62.50;;;;;;4918500;28;90103;-42
2022/05/25 01:04:59;;;;;;;88.20;52.58;;;19.10;62.90;;;;;;4924025;28;91155;-44
2022/05/25 01:07:38;;;;;;;88.53;52.58;;;19.00;62.90;;;;;;4925467;28;89399;-41
2022/05/25 01:10:10;;;;;;;87.47;52.30;;;19.00;62.80;;;;;;4922021;28;91958;-42
2022/05/25 01:13:01;;;;;;;87.63;52.10;;;19.00;62.90;;;;;;4924984;28;91219;-41
2022/05/25 01:15:45;;;;;;;88.10;52.40;;;19.00;62.90;;;;;;4929968;28;90308;-41
2022/05/25 01:18:35;;;;;;;86.97;51.95;;;19.00;63.00;;;;;;4919773;28;91369;-41
2022/05/25 01:21:14;;;;;;;87.55;52.15;;;19.00;62.80;;;;;;4937727;28;89448;-44
2022/05/25 01:24:07;;;;;;;88.75;52.15;;;18.90;63.10;;;;;;4916116;28;96322;-43
2022/05/25 01:27:04;;;;;;;87.45;52.28;;;18.90;62.90;;;;;;4916376;28;90751;-42
2022/05/25 01:30:03;;;;;;;88.75;52.55;;;19.00;62.90;;;;;;4920051;28;92860;-43
2022/05/25 01:33:04;;;;;;;86.70;51.83;;;18.90;62.80;;;;;;4923640;28;91217;-42
2022/05/25 01:35:37;;;;;;;89.28;52.30;;;18.90;63.00;;;;;;4926861;28;90136;-43
2022/05/25 01:38:26;;;;;;;86.97;51.95;;;18.90;63.10;;;;;;4918799;28;91692;-43
2022/05/25 01:41:11;;;;;;;87.60;52.03;;;18.90;63.10;;;;;;4922372;28;89767;-44
2022/05/25 01:43:57;;;;;;;87.28;52.05;;;18.90;63.00;;;;;;4918930;28;90511;-43
2022/05/25 01:46:48;;;;;;;87.80;52.13;;;18.80;63.10;;;;;;4921427;28;91450;-45
2022/05/25 01:49:21;;;;;;;87.63;52.43;;;18.80;63.10;;;;;;4918537;28;91013;-43
2022/05/25 01:52:01;;;;;;;87.45;52.25;;;18.80;62.80;;;;;;4927227;28;89819;-41
2022/05/25 01:54:34;;;;;;;87.00;52.15;;;18.80;63.10;;;;;;4911902;28;90205;-41
2022/05/25 01:57:04;;;;;;;87.93;52.10;;;18.80;63.30;;;;;;4917290;28;90622;-44
2022/05/25 01:59:29;;;;;;;87.72;52.05;;;18.80;64.00;;;;;;4913263;28;90371;-42
2022/05/25 02:04:52;;;;;;;87.32;52.20;;;18.70;63.00;;;;;;4918565;28;94338;-43
2022/05/25 02:07:30;;;;;;;87.15;51.97;;;18.70;62.90;;;;;;4924101;28;90617;-42
2022/05/25 02:10:18;;;;;;;86.22;51.85;;;18.70;63.40;;;;;;4927046;28;90700;-41
2022/05/25 02:12:54;;;;;;;85.55;51.50;;;18.70;63.30;;;;;;4926760;28;90883;-42
2022/05/25 02:15:36;;;;;;;87.07;52.22;;;18.70;63.30;;;;;;4930257;28;91901;-42
2022/05/25 02:18:25;;;;;;;87.10;52.25;;;18.70;63.10;;;;;;4937358;28;91991;-41
2022/05/25 02:20:58;;;;;;;86.13;51.80;;;18.70;63.20;;;;;;4928359;28;94453;-45
2022/05/25 02:23:47;;;;;;;86.72;51.97;;;18.70;63.20;;;;;;4920948;28;90804;-42
2022/05/25 02:26:28;;;;;;;86.88;51.70;;;18.70;63.30;;;;;;4917389;28;93362;-41
2022/05/25 02:29:04;;;;;;;87.03;52.17;;;18.70;63.30;;;;;;4918888;28;91567;-44
2022/05/25 02:31:36;;;;;;;86.30;51.72;;;18.70;63.10;;;;;;4915374;28;94195;-44
2022/05/25 02:34:05;;;;;;;86.25;51.88;;;18.70;62.90;;;;;;4926850;28;91424;-42
2022/05/25 02:36:34;;;;;;;86.80;51.88;;;18.60;62.90;;;;;;4927987;28;90712;-41
2022/05/25 02:39:04;;;;;;;85.75;51.70;;;18.60;63.40;;;;;;4923785;28;91328;-41
2022/05/25 02:41:33;;;;;;;87.10;51.72;;;18.60;63.30;;;;;;4929843;28;91305;-43
2022/05/25 02:44:00;;;;;;;86.25;52.10;;;18.60;63.30;;;;;;4932740;28;90753;-41
2022/05/25 02:46:26;;;;;;;86.82;51.90;;;18.60;62.90;;;;;;4926335;28;89868;-44
2022/05/25 02:48:52;;;;;;;86.28;51.75;;;18.60;63.10;;;;;;4924514;28;90160;-44
2022/05/25 02:51:17;;;;;;;87.03;51.85;;;18.60;63.10;;;;;;4922814;28;92224;-41
2022/05/25 02:53:44;;;;;;;85.78;51.55;;;18.60;63.40;;;;;;4921982;28;90184;-41
2022/05/25 02:56:10;;;;;;;88.03;51.60;;;18.60;63.40;;;;;;4911793;28;90145;-42
2022/05/25 02:58:36;;;;;;;85.90;51.60;;;18.60;63.10;;;;;;4921445;28;95363;-41
2022/05/25 03:01:02;;;;;;;86.40;51.75;;;18.60;63.30;;;;;;4910576;28;90351;-41
2022/05/25 03:03:28;;;;;;;85.63;51.65;;;18.50;63.20;;;;;;4922190;28;91061;-44
2022/05/25 03:05:54;;;;;;;85.45;51.50;;;18.50;63.50;;;;;;4925241;28;91230;-41
2022/05/25 03:08:20;;;;;;;86.13;51.60;;;18.50;63.40;;;;;;4930756;28;90475;-42
2022/05/25 03:10:47;;;;;;;86.75;51.85;;;18.50;63.20;;;;;;4920263;28;90114;-41
2022/05/25 03:13:13;;;;;;;85.68;51.63;;;18.50;63.30;;;;;;4931686;28;92300;-44
2022/05/25 03:15:39;;;;;;;86.90;51.75;;;18.50;63.40;;;;;;4929193;28;95879;-44
2022/05/25 03:18:05;;;;;;;86.32;51.67;;;18.50;63.30;;;;;;4929074;28;92176;-44
2022/05/25 03:20:31;;;;;;;86.22;51.97;;;18.50;63.20;;;;;;4923731;28;90000;-44
2022/05/25 03:22:56;;;;;;;86.97;51.83;;;18.50;63.30;;;;;;4928417;28;93083;-43
2022/05/25 03:25:22;;;;;;;86.68;51.65;;;18.50;63.40;;;;;;4917748;28;91487;-42
2022/05/25 03:27:48;;;;;;;86.15;51.67;;;18.50;63.10;;;;;;4916519;28;93248;-42
2022/05/25 03:30:16;;;;;;;85.40;51.60;;;18.40;63.00;;;;;;4927678;28;93330;-43
2022/05/25 03:32:42;;;;;;;86.63;51.55;;;18.40;63.30;;;;;;4929206;28;90669;-42
2022/05/25 03:35:09;;;;;;;86.55;51.63;;;18.40;63.20;;;;;;4924837;28;95139;-41
2022/05/25 03:37:36;;;;;;;86.35;51.55;;;18.40;63.00;;;;;;4928416;28;94773;-44
2022/05/25 03:40:06;;;;;;;85.82;51.67;;;18.40;63.20;;;;;;4922466;28;91194;-41
2022/05/25 03:42:32;;;;;;;85.47;51.70;;;18.40;62.80;;;;;;4927133;28;92202;-42
2022/05/25 03:44:58;;;;;;;86.35;51.33;;;18.40;63.50;;;;;;4931402;28;89331;-41
2022/05/25 03:47:24;;;;;;;86.22;51.67;;;18.40;63.40;;;;;;4928939;28;90552;-46
2022/05/25 03:49:49;;;;;;;86.13;51.50;;;18.40;63.20;;;;;;4919412;28;91609;-42
2022/05/25 03:52:20;;;;;;;85.57;51.38;;;18.40;63.30;;;;;;4924275;28;90911;-42
2022/05/25 03:54:46;;;;;;;85.00;51.33;;;18.40;63.40;;;;;;4918818;28;91589;-41
2022/05/25 03:57:11;;;;;;;85.60;51.65;;;18.40;63.40;;;;;;4921554;28;95703;-44
2022/05/25 03:59:37;;;;;;;86.13;51.72;;;18.40;63.40;;;;;;4925509;28;90060;-41
2022/05/25 04:02:03;;;;;;;84.65;51.42;;;18.40;63.10;;;;;;4922503;28;89978;-41
2022/05/25 04:04:29;;;;;;;86.68;51.60;;;18.40;63.00;;;;;;4925431;28;90904;-42
2022/05/25 04:06:54;;;;;;;85.28;51.42;;;18.40;63.40;;;;;;4928764;28;91969;-42
2022/05/25 04:09:20;;;;;;;85.07;51.55;;;18.40;63.20;;;;;;4933314;28;90553;-42
2022/05/25 04:11:46;;;;;;;85.28;51.28;;;18.40;63.10;;;;;;4925257;28;90934;-41
2022/05/25 04:14:15;;;;;;;86.30;51.45;;;18.40;63.10;;;;;;4927612;28;94635;-44
2022/05/25 04:16:44;;;;;;;86.15;51.55;;;18.40;63.10;;;;;;4919807;28;91050;-43
2022/05/25 04:19:10;;;;;;;85.40;51.55;;;18.40;62.90;;;;;;4925751;28;91042;-42
2022/05/25 04:21:36;;;;;;;86.65;51.38;;;18.40;62.80;;;;;;4926112;28;89925;-44
2022/05/25 04:24:02;;;;;;;84.97;51.40;;;18.40;62.80;;;;;;4920267;28;92349;-43
2022/05/25 04:26:31;;;;;;;85.05;51.50;;;18.40;62.60;;;;;;4913444;28;90058;-44
2022/05/25 04:29:02;;;;;;;85.45;51.65;;;18.40;62.30;;;;;;4917188;28;90142;-42
2022/05/25 04:31:28;;;;;;;85.72;51.65;;;18.40;62.90;;;;;;4915100;28;90461;-43
2022/05/25 04:33:54;;;;;;;85.07;51.38;;;18.40;62.50;;;;;;4930446;28;89011;-42
2022/05/25 04:36:20;;;;;;;85.50;51.42;;;18.40;62.90;;;;;;4926144;28;90522;-42
2022/05/25 04:38:46;;;;;;;85.85;51.53;;;18.40;62.60;;;;;;4921400;28;94923;-46
2022/05/25 04:41:12;;;;;;;84.78;51.42;;;18.40;62.60;;;;;;4917144;28;91430;-41
2022/05/25 04:43:38;;;;;;;85.45;51.60;;;18.40;63.10;;;;;;4927466;28;90340;-43
2022/05/25 04:46:09;;;;;;;86.70;51.45;;;18.40;62.40;;;;;;4923942;28;92063;-42
2022/05/25 04:48:35;;;;;;;84.50;51.25;;;18.40;62.40;;;;;;4918453;28;91231;-42
2022/05/25 04:51:01;;;;;;;85.22;51.55;;;18.40;62.60;;;;;;4914543;28;95228;-42
2022/05/25 04:53:27;;;;;;;86.63;51.50;;;18.40;62.50;;;;;;4915251;28;93949;-42
2022/05/25 04:58:43;;;;;;;84.85;51.13;;;18.50;62.60;;;;;;4917904;28;90830;-41
2022/05/25 05:01:12;;;;;;;85.00;51.30;;;18.50;62.20;;;;;;4916032;28;90682;-41
2022/05/25 05:03:38;;;;;;;85.10;51.33;;;18.50;62.40;;;;;;4912292;28;92004;-41
2022/05/25 05:06:06;;;;;;;85.07;51.35;;;18.50;62.30;;;;;;4916510;28;91188;-42
2022/05/25 05:08:32;;;;;;;84.97;51.40;;;18.50;62.30;;;;;;4920246;28;90902;-42
2022/05/25 05:11:06;;;;;;;85.30;51.58;;;18.50;62.20;;;;;;4922019;28;90306;-44
2022/05/25 05:13:32;;;;;;;86.35;51.42;;;18.50;62.40;;;;;;4930240;28;90677;-44
2022/05/25 05:16:04;;;;;;;87.47;51.72;;;18.50;62.20;;;;;;4917101;28;92723;-41
2022/05/25 05:18:30;;;;;;;86.50;51.75;;;18.50;62.00;;;;;;4911947;28;89547;-44
2022/05/25 05:20:55;;;;;;;85.78;51.35;;;18.50;62.20;;;;;;4911222;28;91666;-41
2022/05/25 05:23:21;;;;;;;85.22;51.40;;;18.50;62.20;;;;;;4913358;28;89154;-42
2022/05/25 05:25:47;;;;;;;85.35;51.72;;;18.60;61.50;;;;;;4909469;28;90948;-42
2022/05/25 05:28:19;;;;;;;85.38;51.40;;;18.50;61.80;;;;;;4916178;28;91625;-43
2022/05/25 05:30:53;;;;;;;86.28;51.75;;;18.50;62.20;;;;;;4916373;28;91492;-47
2022/05/25 05:33:19;;;;;;;86.45;51.83;;;18.50;62.70;;;;;;4909108;28;91637;-42
2022/05/25 05:35:49;;;;;;;86.40;51.53;;;18.50;62.80;;;;;;4906508;28;95874;-42
2022/05/25 05:38:16;;;;;;;88.50;52.17;;;18.60;62.70;;;;;;4918352;28;90813;-44
2022/05/25 05:40:42;;;;;;;88.13;52.15;;;18.60;63.10;;;;;;4901121;28;90875;-44
2022/05/25 05:43:09;;;;;;;89.20;52.63;;;18.70;62.90;;;;;;4913277;28;90062;-42
2022/05/25 05:45:38;;;;;;;90.30;52.75;;;18.70;62.90;;;;;;4915322;28;90241;-45
2022/05/25 05:48:15;;;;;;;92.20;52.95;;;18.70;62.20;;;;;;4911477;28;91201;-43
2022/05/25 05:50:44;;;;;;;90.70;52.85;;;18.70;63.70;;;;;;4920264;28;91808;-46
2022/05/25 05:53:11;;;;;;;94.55;53.25;;;18.70;63.90;;;;;;4920866;28;90109;-42
2022/05/25 05:55:43;;;;;;;90.97;53.05;;;18.80;64.00;;;;;;4917016;28;91934;-42
2022/05/25 05:58:09;;;;;;;;;;;18.80;63.40;;;;;;4919215;28;94629;-43
2022/05/25 06:00:35;;;;;;;95.32;53.53;;;18.80;64.60;;;;;;4922286;28;90241;-42
2022/05/25 06:03:01;;;;;;;95.00;53.85;;;18.90;64.40;;;;;;4915620;28;93879;-44
2022/05/25 06:05:27;;;;;;;93.50;53.90;;;18.90;64.20;;;;;;4926878;28;91656;-43
2022/05/25 06:07:53;;;;;;;96.60;53.92;;;18.90;64.10;;;;;;4908901;28;94725;-43
2022/05/25 06:10:19;;;;;;;95.07;54.42;;;18.90;64.50;;;;;;4928914;28;90121;-43
2022/05/25 06:12:46;;;;;;;95.50;54.17;;;19.00;64.90;;;;;;4925207;28;91966;-43
2022/05/25 06:20:40;;;;;;;94.05;53.97;;;19.00;65.20;;;;;;4928986;28;90954;-41
2022/05/25 06:23:05;;;;;;;98.97;54.20;;;19.10;65.40;;;;;;4928962;28;90175;-43
2022/05/25 06:25:31;;;;;;;96.47;54.10;;;19.10;65.40;;;;;;4919222;28;90856;-43
2022/05/25 06:27:57;;;;;;;97.35;54.33;;;19.20;65.80;;;;;;4918584;28;92093;-41
2022/05/25 06:30:24;;;;;;;97.75;54.35;;;19.20;65.90;;;;;;4928980;28;90005;-41
2022/05/25 06:32:50;;;;;;;94.18;53.97;;;19.30;65.10;;;;;;4929919;28;90240;-42
2022/05/25 06:35:16;;;;;;;95.20;54.63;;;19.40;65.20;;;;;;4925710;28;91667;-42
2022/05/25 06:37:41;;;;;;;98.80;54.13;;;19.50;64.60;;;;;;4928579;28;89471;-44
2022/05/25 06:40:08;;;;;;;95.80;54.30;;;19.50;64.40;;;;;;4929605;28;89795;-43
2022/05/25 06:42:34;;;;;;;97.05;54.33;;;19.60;64.00;;;;;;4932945;28;89596;-42
2022/05/25 06:45:00;;;;;;;94.72;54.55;;;19.70;64.30;;;;;;4928126;28;92576;-42
2022/05/25 06:47:27;;;;;;;96.30;54.67;;;19.70;63.90;;;;;;4924209;28;89991;-41
2022/05/25 06:49:54;;;;;;;96.82;54.10;;;19.70;64.50;;;;;;4925976;28;91592;-41
2022/05/25 06:52:21;;;;;;;96.57;54.42;;;19.80;64.30;;;;;;4923116;28;92440;-44
2022/05/25 06:54:53;;;;;;;97.32;54.13;;;19.90;64.10;;;;;;4924701;28;90087;-45
2022/05/25 06:57:18;;;;;;;93.28;54.50;;;19.90;64.00;;;;;;4925064;28;90107;-41
2022/05/25 06:59:44;;;;;;;95.82;54.60;;;20.00;63.60;;;;;;4926660;28;90135;-40
2022/05/25 07:02:09;;;;;;;95.45;54.22;;;20.10;63.40;;;;;;4929242;28;89044;-42
2022/05/25 07:04:35;;;;;;;94.85;54.17;;;20.20;63.40;;;;;;4928165;28;90515;-42
2022/05/25 07:07:02;;;;;;;92.50;54.20;;;20.20;63.20;;;;;;4927126;28;90771;-43
2022/05/25 07:09:27;;;;;;;94.43;54.58;;;20.30;62.80;;;;;;4921872;28;90644;-41
2022/05/25 07:11:53;;;;;;;95.45;54.28;;;20.40;62.90;;;;;;4913427;28;89757;-42
2022/05/25 07:14:19;;;;;;;95.13;54.50;;;20.50;62.70;;;;;;4923743;28;90387;-42
2022/05/25 07:16:44;;;;;;;95.82;54.50;;;20.60;62.40;;;;;;4928721;28;90458;-45
2022/05/25 07:19:10;;;;;;;95.43;54.55;;;20.70;61.50;;;;;;4925462;28;89915;-44
2022/05/25 07:21:35;;;;;;;98.18;54.42;;;20.80;61.20;;;;;;4924856;28;90123;-42
2022/05/25 07:24:02;;;;;;;94.80;53.95;;;20.80;60.70;;;;;;4924531;28;89833;-44
2022/05/25 07:26:30;;;;;;;95.20;54.15;;;20.90;60.40;;;;;;4914955;28;93092;-42
2022/05/25 07:28:55;;;;;;;96.30;54.35;;;20.90;60.80;;;;;;4923911;28;90136;-42
2022/05/25 07:31:42;;;;;;;96.18;54.33;;;20.90;60.90;;;;;;4939214;28;90203;-42
2022/05/25 07:34:16;;;;;;;93.90;54.25;;;20.90;61.10;;;;;;4923148;28;91154;-43
2022/05/25 07:36:46;;;;;;;95.88;54.25;;;20.90;61.40;;;;;;4922876;28;90921;-41
2022/05/25 07:39:14;;;;;;;97.03;54.03;;;20.90;61.50;;;;;;4924025;28;90733;-42
2022/05/25 07:41:43;;;;;;;94.70;54.28;;;20.90;61.50;;;;;;4920967;28;91911;-41
2022/05/25 07:44:14;;;;;;;97.68;54.05;;;20.90;61.50;;;;;;4925056;28;90947;-44
2022/05/25 07:46:40;;;;;;;95.50;54.10;;;21.00;61.50;;;;;;4925074;28;90212;-42
2022/05/25 07:49:05;;;;;;;93.93;53.97;;;20.90;61.50;;;;;;4929938;28;90146;-41
2022/05/25 07:51:31;;;;;;;95.95;54.53;;;21.00;61.40;;;;;;4924015;28;89253;-42
2022/05/25 07:53:59;;;;;;;93.35;54.22;;;21.00;61.60;;;;;;4920676;28;91203;-44
2022/05/25 07:56:29;;;;;;;94.97;54.15;;;21.10;61.60;;;;;;4926395;28;90248;-41
2022/05/25 07:58:56;;;;;;;95.30;54.33;;;21.10;61.60;;;;;;4920388;28;92493;-43
2022/05/25 08:05:43;;;;;;;94.30;53.85;;;21.20;61.40;;;;;;4922978;28;94086;-43
2022/05/25 08:06:55;;;;;;;95.97;54.05;;;21.20;61.30;;;;;;4935325;28;90518;-43
2022/05/25 08:09:21;;;;;;;96.55;54.30;;;21.30;61.10;;;;;;4921865;28;95804;-42
2022/05/25 08:11:46;;;;;;;93.47;54.28;;;21.30;60.90;;;;;;4925086;28;90022;-42
2022/05/25 08:14:12;;;;;;;93.88;53.97;;;21.30;60.90;;;;;;4924249;28;93649;-41
2022/05/25 08:16:38;;;;;;;103.97;54.13;;;21.40;61.00;;;;;;4928203;28;92344;-42
2022/05/25 08:19:04;;;;;;;94.45;54.03;;;21.40;60.70;;;;;;4923412;28;89999;-45
2022/05/25 08:21:29;;;;;;;96.53;54.30;;;21.50;60.20;;;;;;4927498;28;89781;-41
2022/05/25 08:23:55;;;;;;;96.47;53.97;;;21.40;60.40;;;;;;4924073;28;91030;-43
2022/05/25 08:26:20;;;;;;;94.38;53.83;;;21.50;60.40;;;;;;4927623;28;91144;-43
2022/05/25 08:28:46;;;;;;;93.43;53.85;;;21.50;60.10;;;;;;4922596;28;96016;-41
2022/05/25 08:31:11;;;;;;;94.07;54.35;;;21.60;60.20;;;;;;4916700;28;92123;-42
2022/05/25 08:33:37;;;;;;;93.60;54.03;;;21.60;60.10;;;;;;4923860;28;90280;-42
2022/05/25 08:36:03;;;;;;;96.05;54.05;;;21.70;60.00;;;;;;4926281;28;90039;-43
2022/05/25 08:38:28;;;;;;;94.85;53.90;;;21.80;59.80;;;;;;4926651;28;89575;-42
2022/05/25 08:40:56;;;;;;;93.88;54.13;;;21.80;59.30;;;;;;4930816;28;91154;-42
2022/05/25 08:43:27;;;;;;;96.43;54.25;;;21.90;59.60;;;;;;4931374;28;90118;-41
2022/05/25 08:45:57;;;;;;;;;;;21.90;59.60;;;;;;4922055;28;91214;-41
2022/05/25 08:48:23;;;;;;;94.47;54.17;;;21.90;59.20;;;;;;4930264;28;90937;-41
2022/05/25 08:50:57;;;;;;;93.60;53.75;;;22.00;59.60;;;;;;4926833;28;90386;-41
2022/05/25 08:53:24;;;;;;;95.35;54.20;;;22.00;59.30;;;;;;4926178;28;89917;-42
2022/05/25 08:55:52;;;;;;;94.30;54.30;;;22.00;59.40;;;;;;4925439;28;92231;-41
2022/05/25 08:58:20;;;;;;;95.47;54.17;;;22.10;59.40;;;;;;4920772;28;89968;-42
2022/05/25 09:00:47;;;;;;;97.88;54.40;;;22.20;59.10;;;;;;4920459;28;90189;-43
2022/05/25 09:03:38;;;;;;;94.20;53.90;;;22.20;58.90;;;;;;4930702;28;91719;-42
2022/05/25 09:06:21;;;;;;;93.73;54.27;;;22.30;59.00;;;;;;4925593;28;90654;-43
2022/05/25 09:09:16;;;;;;;94.65;54.30;;;22.40;59.30;;;;;;4923367;28;90220;-42
2022/05/25 09:12:09;;;;;;;97.88;54.47;;;22.50;58.50;;;;;;4920784;28;91295;-44
2022/05/25 09:14:46;;;;;;;95.70;54.15;;;22.50;58.50;;;;;;4926835;28;91149;-42
2022/05/25 09:17:21;;;;;;;94.55;54.03;;;22.60;58.50;;;;;;4929992;28;92053;-41
2022/05/25 09:19:47;;;;;;;94.43;54.20;;;22.50;58.30;;;;;;4927681;28;96180;-41
2022/05/25 09:22:19;;;;;;;95.70;54.38;;;22.50;58.30;;;;;;4931243;28;89975;-44
2022/05/25 09:24:45;;;;;;;95.78;54.15;;;22.70;58.00;;;;;;4927574;28;90427;-42
2022/05/25 09:27:13;;;;;;;98.32;54.72;;;22.80;57.60;;;;;;4930763;28;91074;-42
2022/05/25 09:29:40;;;;;;;94.50;54.13;;;22.90;57.50;;;;;;4923385;28;90253;-44
2022/05/25 09:32:06;;;;;;;94.68;54.35;;;22.90;57.20;;;;;;4925525;28;89546;-42
2022/05/25 09:35:01;;;;;;;94.97;54.65;;;22.90;57.40;;;;;;4929005;28;90275;-43
2022/05/25 09:37:36;;;;;;;96.07;54.28;;;22.80;57.40;;;;;;4926260;28;90637;-45
2022/05/25 09:40:04;;;;;;;106.30;54.63;;;22.80;57.20;;;;;;4922255;28;91163;-42
2022/05/25 09:42:35;;;;;;;95.63;54.45;;;22.80;56.40;;;;;;4924177;28;89753;-42
2022/05/25 09:45:00;;;;;;;96.57;54.57;;;22.80;56.70;;;;;;4925454;28;91483;-44
2022/05/25 09:47:42;;;;;;;94.38;54.13;;;22.80;56.70;;;;;;4933756;28;91810;-43
2022/05/25 09:50:13;;;;;;;;;;;22.80;56.90;;;;;;4929546;28;90146;-40
2022/05/25 09:52:46;;;;;;;96.85;54.10;;;22.80;57.10;;;;;;4908883;28;91358;-41
2022/05/25 09:55:32;;;;;;;95.97;54.10;;;22.70;57.10;;;;;;4923165;28;91146;-40
2022/05/25 09:58:02;;;;;;;97.82;54.20;;;22.70;57.40;;;;;;4921310;28;90601;-41
2022/05/25 10:00:33;;;;;;;95.75;54.45;;;22.70;57.50;;;;;;4929661;28;90516;-41
2022/05/25 10:03:04;;;;;;;98.90;54.20;;;22.70;57.40;;;;;;4918482;28;91037;-40
2022/05/25 10:05:49;;;;;;;94.78;54.35;;;22.80;57.40;;;;;;4925405;28;92202;-43
2022/05/25 10:08:39;;;;;;;96.43;54.45;;;22.80;57.20;;;;;;4931757;28;90577;-45
2022/05/25 10:11:09;;;;;;;97.85;54.45;;;22.90;57.20;;;;;;4912660;28;90339;-43
2022/05/25 10:13:42;;;;;;;95.80;54.45;;;23.00;57.00;;;;;;4923496;28;90071;-44
2022/05/25 10:16:29;;;;;;;95.70;54.35;;;23.00;56.90;;;;;;4916316;28;90997;-44
2022/05/25 10:18:55;;;;;;;94.72;54.00;;;23.00;55.60;;;;;;4920505;28;91477;-41
2022/05/25 10:21:32;;;;;;;95.07;54.33;;;22.90;55.60;;;;;;4925410;28;92296;-41
2022/05/25 10:23:59;;;;;;;97.45;54.42;;;22.90;55.90;;;;;;4921517;28;89354;-40
2022/05/25 10:26:36;;;;;;;100.40;54.38;;;22.90;56.00;;;;;;4923593;28;90825;-40
2022/05/25 10:29:07;;;;;;;96.93;54.20;;;22.80;55.80;;;;;;4925384;28;91284;-46
2022/05/25 10:37:31;;;;;;;96.47;54.22;;;22.70;55.30;;;;;;4928945;28;90595;-41
2022/05/25 10:39:56;;;;;;;95.93;54.37;;;22.70;55.20;;;;;;4926529;28;90222;-44
2022/05/25 10:42:29;;;;;;;96.88;54.55;;;22.70;55.00;;;;;;4918696;28;91133;-41
2022/05/25 10:45:18;;;;;;;98.57;54.72;;;22.80;54.60;;;;;;4925928;28;93473;-40
2022/05/25 10:47:54;;;;;;;96.85;54.33;;;22.90;54.30;;;;;;4927420;28;90490;-40
2022/05/25 10:50:36;;;;;;;99.53;55.00;;;23.00;54.10;;;;;;4922007;28;90777;-40
2022/05/25 10:53:04;;;;;;;97.72;54.85;;;23.10;53.60;;;;;;4916697;28;93529;-40
2022/05/25 10:56:02;;;;;;;98.32;55.13;;;23.30;53.40;;;;;;4919255;28;90635;-41
2022/05/25 10:58:59;;;;;;;98.55;54.80;;;23.30;53.00;;;;;;4920542;28;94442;-40
2022/05/25 11:01:43;;;;;;;97.90;54.95;;;23.40;52.80;;;;;;4920216;28;92799;-42
2022/05/25 11:04:24;;;;;;;98.20;54.92;;;23.50;52.30;;;;;;4924853;28;89904;-42
2022/05/25 11:07:15;;;;;;;97.60;54.67;;;23.50;52.50;;;;;;4925578;28;94467;-40
2022/05/25 11:10:09;;;;;;;97.57;54.75;;;23.50;52.60;;;;;;4923685;28;90286;-42
2022/05/25 11:13:09;;;;;;;97.22;54.83;;;23.50;52.60;;;;;;4924722;28;92072;-43
2022/05/25 11:15:34;;;;;;;97.40;54.38;;;23.40;52.70;;;;;;4923438;28;90129;-42
2022/05/25 11:18:09;;;;;;;97.00;54.50;;;23.40;52.70;;;;;;4925384;28;89556;-42
2022/05/25 11:20:46;;;;;;;96.70;54.47;;;23.30;52.90;;;;;;4933296;28;90142;-43
2022/05/25 11:23:24;;;;;;;100.65;55.10;;;23.30;52.80;;;;;;4937370;28;76707;-42
2022/05/25 11:25:57;;;;;;;98.32;54.70;;;23.30;52.80;;;;;;4943916;28;77669;-40
2022/05/25 11:28:47;;;;;;;96.82;54.78;;;23.30;52.80;;;;;;4935381;28;76260;-40
2022/05/25 11:31:38;;;;;;;101.28;54.60;;;23.30;52.80;;;;;;4932318;28;88154;-40
2022/05/25 11:34:04;;;;;;;97.72;54.63;;;23.20;52.90;;;;;;4941106;28;89247;-44
2022/05/25 11:36:49;;;;;;;101.20;54.63;;;23.20;52.80;;;;;;4950028;28;81001;-40
2022/05/25 11:39:33;;;;;;;98.38;54.22;;;23.20;53.00;;;;;;4939749;28;77520;-40
2022/05/25 11:42:03;;;;;;;96.68;54.25;;;23.20;52.90;;;;;;4947170;28;76819;-39
2022/05/25 11:45:01;;;;;;;101.50;54.85;;;23.10;53.20;;;;;;4949533;28;77643;-40
2022/05/25 11:48:04;;;;;;;98.40;54.80;;;23.20;53.50;;;;;;4944700;28;78213;-39
2022/05/25 11:50:37;;;;;;;93.38;54.20;;;23.30;53.10;;;;;;4921764;28;90181;-39
2022/05/25 11:53:39;;;;;;;93.57;54.28;;;23.40;53.10;;;;;;4931456;28;90818;-41
2022/05/25 11:56:18;;;;;;;95.57;54.60;;;23.40;53.30;;;;;;4925133;28;91160;-41
2022/05/25 11:59:05;;;;;;;92.32;54.53;;;23.40;53.20;;;;;;4922283;28;89852;-41
2022/05/25 12:02:08;;;;;;;95.03;54.42;;;23.50;53.70;;;;;;4920306;28;89442;-42
2022/05/25 12:05:11;;;;;;;95.72;54.63;;;23.60;53.20;;;;;;4925959;28;91547;-41
2022/05/25 12:07:42;;;;;;;93.68;54.92;;;23.70;52.70;;;;;;4930695;28;89898;-40
2022/05/25 12:10:13;;;;;;;95.50;54.88;;;23.90;52.70;;;;;;4925191;28;93750;-41
2022/05/25 12:12:57;;;;;;;95.80;55.13;;;24.00;52.30;;;;;;4928627;28;89541;-40
2022/05/25 12:15:33;;;;;;;94.18;54.95;;;24.10;52.20;;;;;;4922379;28;93923;-43
2022/05/25 12:18:19;;;;;;;97.65;54.92;;;24.10;51.60;;;;;;4924957;28;89952;-40
2022/05/25 12:21:01;;;;;;;94.55;55.15;;;24.30;51.70;;;;;;4922249;28;92312;-43
2022/05/25 12:23:32;;;;;;;94.22;55.25;;;24.40;51.50;;;;;;4926362;28;93315;-41
2022/05/25 12:26:05;;;;;;;99.15;55.40;;;24.40;51.40;;;;;;4917050;28;90061;-40
2022/05/25 12:28:38;;;;;;;95.90;55.47;;;24.50;51.00;;;;;;4919470;28;89996;-42
2022/05/25 12:31:15;;;;;;;96.03;55.40;;;24.60;51.00;;;;;;4920453;28;90668;-40
2022/05/25 12:33:43;;;;;;;101.20;56.05;;;24.70;50.50;;;;;;4914070;28;91683;-40
2022/05/25 12:36:10;;;;;;;95.10;55.28;;;24.70;50.60;;;;;;4925496;28;92084;-40
2022/05/25 12:38:37;;;;;;;94.15;55.47;;;24.70;50.60;;;;;;4924908;28;89905;-40
2022/05/25 12:41:32;;;;;;;112.43;55.72;;;24.70;50.80;;;;;;4924388;28;89948;-40
2022/05/25 12:49:40;;;;;;;96.25;55.35;;;24.70;51.40;;;;;;4926310;28;90473;-40
2022/05/25 12:52:27;;;;;;;95.88;55.33;;;24.70;51.00;;;;;;4918377;28;92294;-40
2022/05/25 12:54:59;;;;;;;98.43;55.28;;;24.80;51.20;;;;;;4928700;28;90772;-41
2022/05/25 12:57:37;;;;;;;96.97;55.58;;;24.80;51.10;;;;;;4927457;28;90287;-41
2022/05/25 13:00:22;;;;;;;96.97;55.33;;;24.90;51.00;;;;;;4918244;28;90204;-40
2022/05/25 13:02:48;;;;;;;97.00;55.08;;;24.90;50.50;;;;;;4922024;28;90635;-40
2022/05/25 13:05:44;;;;;;;96.25;55.30;;;25.00;50.50;;;;;;4926374;28;89996;-40
2022/05/25 13:08:30;;;;;;;95.40;55.55;;;24.90;50.70;;;;;;4926121;28;90923;-41
2022/05/25 13:10:56;;;;;;;101.35;55.55;;;24.90;50.50;;;;;;4926525;28;90007;-42
2022/05/25 13:13:30;;;;;;;99.03;55.47;;;25.00;50.40;;;;;;4922200;28;91041;-41
2022/05/25 13:15:56;;;;;;;98.85;55.72;;;25.10;50.10;;;;;;4920806;28;90807;-41
2022/05/25 13:18:45;;;;;;;97.40;55.88;;;25.20;50.20;;;;;;4925982;28;89849;-41